sensor_id;sensor_type;location;lat;lon;timestamp;P1;durP1;ratioP1;P2;durP2;ratioP2
11986;SDS011;6053;51.382;6.768;2023-04-03T00:02:08;1.40;;;1.40;;
11986;SDS011;6053;51.382;6.768;2023-04-03T00:04:36;1.55;;;1.55;;
11986;SDS011;6053;51.382;6.768;2023-04-03T00:07:07;1.40;;;1.40;;
11986;SDS011;6053;51.382;6.768;2023-04-03T00:09:36;1.50;;;1.50;;
11986;SDS011;6053;51.382;6.768;2023-04-03T00:12:05;1.58;;;1.50;;
11986;SDS011;6053;51.382;6.768;2023-04-03T00:14:33;1.58;;;1.52;;
11986;SDS011;6053;51.382;6.768;2023-04-03T00:17:02;1.40;;;1.40;;
11986;SDS011;6053;51.382;6.768;2023-04-03T00:19:31;1.33;;;1.33;;
11986;SDS011;6053;51.382;6.768;2023-04-03T00:21:59;1.70;;;1.70;;
11986;SDS011;6053;51.382;6.768;2023-04-03T00:24:29;1.58;;;1.58;;
11986;SDS011;6053;51.382;6.768;2023-04-03T00:26:58;1.50;;;1.50;;
11986;SDS011;6053;51.382;6.768;2023-04-03T00:29:27;1.40;;;1.40;;
11986;SDS011;6053;51.382;6.768;2023-04-03T00:31:55;1.42;;;1.42;;
11986;SDS011;6053;51.382;6.768;2023-04-03T00:34:24;1.80;;;1.70;;
11986;SDS011;6053;51.382;6.768;2023-04-03T00:36:52;1.40;;;1.40;;
11986;SDS011;6053;51.382;6.768;2023-04-03T00:39:21;1.47;;;1.47;;
11986;SDS011;6053;51.382;6.768;2023-04-03T00:41:51;1.40;;;1.40;;
11986;SDS011;6053;51.382;6.768;2023-04-03T00:44:21;1.50;;;1.40;;
11986;SDS011;6053;51.382;6.768;2023-04-03T00:47:11;1.50;;;1.50;;
11986;SDS011;6053;51.382;6.768;2023-04-03T00:49:42;1.38;;;1.38;;
11986;SDS011;6053;51.382;6.768;2023-04-03T00:52:13;1.40;;;1.40;;
11986;SDS011;6053;51.382;6.768;2023-04-03T00:54:43;1.60;;;1.60;;
11986;SDS011;6053;51.382;6.768;2023-04-03T00:57:17;1.40;;;1.40;;
11986;SDS011;6053;51.382;6.768;2023-04-03T00:59:46;1.40;;;1.40;;
11986;SDS011;6053;51.382;6.768;2023-04-03T01:02:19;1.50;;;1.50;;
11986;SDS011;6053;51.382;6.768;2023-04-03T01:04:48;1.38;;;1.38;;
11986;SDS011;6053;51.382;6.768;2023-04-03T01:07:17;1.50;;;1.40;;
11986;SDS011;6053;51.382;6.768;2023-04-03T01:09:49;1.60;;;1.60;;
11986;SDS011;6053;51.382;6.768;2023-04-03T01:12:23;1.40;;;1.40;;
11986;SDS011;6053;51.382;6.768;2023-04-03T01:14:54;1.30;;;1.30;;
11986;SDS011;6053;51.382;6.768;2023-04-03T01:17:26;1.60;;;1.50;;
11986;SDS011;6053;51.382;6.768;2023-04-03T01:20:02;1.27;;;1.27;;
11986;SDS011;6053;51.382;6.768;2023-04-03T01:22:58;1.40;;;1.40;;
11986;SDS011;6053;51.382;6.768;2023-04-03T01:25:35;1.60;;;1.50;;
11986;SDS011;6053;51.382;6.768;2023-04-03T01:28:06;1.33;;;1.33;;
11986;SDS011;6053;51.382;6.768;2023-04-03T01:30:39;1.90;;;1.80;;
11986;SDS011;6053;51.382;6.768;2023-04-03T01:33:16;1.38;;;1.38;;
11986;SDS011;6053;51.382;6.768;2023-04-03T01:35:45;1.70;;;1.60;;
11986;SDS011;6053;51.382;6.768;2023-04-03T01:38:13;1.73;;;1.63;;
11986;SDS011;6053;51.382;6.768;2023-04-03T01:40:42;1.60;;;1.60;;
11986;SDS011;6053;51.382;6.768;2023-04-03T01:43:11;1.60;;;1.60;;
11986;SDS011;6053;51.382;6.768;2023-04-03T01:45:39;1.53;;;1.53;;
11986;SDS011;6053;51.382;6.768;2023-04-03T01:48:08;1.50;;;1.50;;
11986;SDS011;6053;51.382;6.768;2023-04-03T01:50:38;1.40;;;1.40;;
11986;SDS011;6053;51.382;6.768;2023-04-03T01:53:07;1.27;;;1.27;;
11986;SDS011;6053;51.382;6.768;2023-04-03T01:55:35;1.63;;;1.63;;
11986;SDS011;6053;51.382;6.768;2023-04-03T01:58:04;1.60;;;1.60;;
11986;SDS011;6053;51.382;6.768;2023-04-03T02:00:33;1.60;;;1.60;;
11986;SDS011;6053;51.382;6.768;2023-04-03T02:03:03;1.40;;;1.40;;
11986;SDS011;6053;51.382;6.768;2023-04-03T02:05:33;1.35;;;1.35;;
11986;SDS011;6053;51.382;6.768;2023-04-03T02:08:03;1.43;;;1.43;;
11986;SDS011;6053;51.382;6.768;2023-04-03T02:10:32;1.63;;;1.63;;
11986;SDS011;6053;51.382;6.768;2023-04-03T02:13:01;1.73;;;1.63;;
11986;SDS011;6053;51.382;6.768;2023-04-03T02:15:30;1.70;;;1.60;;
11986;SDS011;6053;51.382;6.768;2023-04-03T02:17:58;1.52;;;1.52;;
11986;SDS011;6053;51.382;6.768;2023-04-03T02:20:33;1.40;;;1.40;;
11986;SDS011;6053;51.382;6.768;2023-04-03T02:23:02;1.63;;;1.55;;
11986;SDS011;6053;51.382;6.768;2023-04-03T02:25:32;1.50;;;1.50;;
11986;SDS011;6053;51.382;6.768;2023-04-03T02:28:04;1.60;;;1.50;;
11986;SDS011;6053;51.382;6.768;2023-04-03T02:30:33;1.60;;;1.60;;
11986;SDS011;6053;51.382;6.768;2023-04-03T02:33:02;1.40;;;1.40;;
11986;SDS011;6053;51.382;6.768;2023-04-03T02:35:30;1.57;;;1.57;;
11986;SDS011;6053;51.382;6.768;2023-04-03T02:37:59;1.60;;;1.50;;
11986;SDS011;6053;51.382;6.768;2023-04-03T02:40:29;1.50;;;1.50;;
11986;SDS011;6053;51.382;6.768;2023-04-03T02:42:58;1.50;;;1.50;;
11986;SDS011;6053;51.382;6.768;2023-04-03T02:45:26;1.57;;;1.57;;
11986;SDS011;6053;51.382;6.768;2023-04-03T02:47:55;1.65;;;1.65;;
11986;SDS011;6053;51.382;6.768;2023-04-03T02:50:24;1.70;;;1.70;;
11986;SDS011;6053;51.382;6.768;2023-04-03T02:52:52;1.40;;;1.40;;
11986;SDS011;6053;51.382;6.768;2023-04-03T02:55:21;1.50;;;1.50;;
11986;SDS011;6053;51.382;6.768;2023-04-03T02:57:51;1.43;;;1.43;;
11986;SDS011;6053;51.382;6.768;2023-04-03T03:00:20;1.45;;;1.45;;
11986;SDS011;6053;51.382;6.768;2023-04-03T03:02:49;1.60;;;1.60;;
11986;SDS011;6053;51.382;6.768;2023-04-03T03:05:17;1.70;;;1.70;;
11986;SDS011;6053;51.382;6.768;2023-04-03T03:07:46;1.70;;;1.70;;
11986;SDS011;6053;51.382;6.768;2023-04-03T03:10:15;1.73;;;1.73;;
11986;SDS011;6053;51.382;6.768;2023-04-03T03:12:43;1.60;;;1.60;;
11986;SDS011;6053;51.382;6.768;2023-04-03T03:15:14;1.50;;;1.50;;
11986;SDS011;6053;51.382;6.768;2023-04-03T03:17:43;1.55;;;1.55;;
11986;SDS011;6053;51.382;6.768;2023-04-03T03:20:12;1.50;;;1.50;;
11986;SDS011;6053;51.382;6.768;2023-04-03T03:22:41;1.35;;;1.35;;
11986;SDS011;6053;51.382;6.768;2023-04-03T03:25:10;1.50;;;1.50;;
11986;SDS011;6053;51.382;6.768;2023-04-03T03:27:39;1.30;;;1.30;;
11986;SDS011;6053;51.382;6.768;2023-04-03T03:30:08;1.50;;;1.50;;
11986;SDS011;6053;51.382;6.768;2023-04-03T03:32:38;1.95;;;1.85;;
11986;SDS011;6053;51.382;6.768;2023-04-03T03:35:07;1.30;;;1.30;;
11986;SDS011;6053;51.382;6.768;2023-04-03T03:37:36;1.60;;;1.60;;
11986;SDS011;6053;51.382;6.768;2023-04-03T03:40:05;1.48;;;1.48;;
11986;SDS011;6053;51.382;6.768;2023-04-03T03:42:35;1.65;;;1.65;;
11986;SDS011;6053;51.382;6.768;2023-04-03T03:45:04;1.75;;;1.75;;
11986;SDS011;6053;51.382;6.768;2023-04-03T03:47:33;1.50;;;1.50;;
11986;SDS011;6053;51.382;6.768;2023-04-03T03:50:03;1.42;;;1.42;;
11986;SDS011;6053;51.382;6.768;2023-04-03T03:52:33;1.42;;;1.42;;
11986;SDS011;6053;51.382;6.768;2023-04-03T03:55:02;1.70;;;1.70;;
11986;SDS011;6053;51.382;6.768;2023-04-03T03:57:31;1.75;;;1.65;;
11986;SDS011;6053;51.382;6.768;2023-04-03T03:59:59;1.70;;;1.60;;
11986;SDS011;6053;51.382;6.768;2023-04-03T04:02:28;2.00;;;1.90;;
11986;SDS011;6053;51.382;6.768;2023-04-03T04:04:57;1.60;;;1.60;;
11986;SDS011;6053;51.382;6.768;2023-04-03T04:07:27;1.80;;;1.70;;
11986;SDS011;6053;51.382;6.768;2023-04-03T04:09:55;1.65;;;1.55;;
11986;SDS011;6053;51.382;6.768;2023-04-03T04:12:24;1.70;;;1.65;;
11986;SDS011;6053;51.382;6.768;2023-04-03T04:14:53;1.70;;;1.70;;
11986;SDS011;6053;51.382;6.768;2023-04-03T04:17:21;1.58;;;1.58;;
11986;SDS011;6053;51.382;6.768;2023-04-03T04:19:50;1.77;;;1.67;;
11986;SDS011;6053;51.382;6.768;2023-04-03T04:22:18;1.80;;;1.70;;
11986;SDS011;6053;51.382;6.768;2023-04-03T04:24:48;1.80;;;1.70;;
11986;SDS011;6053;51.382;6.768;2023-04-03T04:27:17;1.63;;;1.63;;
11986;SDS011;6053;51.382;6.768;2023-04-03T04:29:46;1.55;;;1.55;;
11986;SDS011;6053;51.382;6.768;2023-04-03T04:32:14;1.75;;;1.70;;
11986;SDS011;6053;51.382;6.768;2023-04-03T04:34:43;2.22;;;2.00;;
11986;SDS011;6053;51.382;6.768;2023-04-03T04:37:11;1.70;;;1.60;;
11986;SDS011;6053;51.382;6.768;2023-04-03T04:39:40;1.70;;;1.60;;
11986;SDS011;6053;51.382;6.768;2023-04-03T04:42:10;1.57;;;1.47;;
11986;SDS011;6053;51.382;6.768;2023-04-03T04:44:42;1.92;;;1.80;;
11986;SDS011;6053;51.382;6.768;2023-04-03T04:47:11;1.50;;;1.50;;
11986;SDS011;6053;51.382;6.768;2023-04-03T04:49:39;1.60;;;1.60;;
11986;SDS011;6053;51.382;6.768;2023-04-03T04:52:08;2.00;;;1.90;;
11986;SDS011;6053;51.382;6.768;2023-04-03T04:54:37;1.40;;;1.40;;
11986;SDS011;6053;51.382;6.768;2023-04-03T04:57:05;1.80;;;1.70;;
11986;SDS011;6053;51.382;6.768;2023-04-03T04:59:35;1.40;;;1.40;;
11986;SDS011;6053;51.382;6.768;2023-04-03T05:02:04;1.50;;;1.50;;
11986;SDS011;6053;51.382;6.768;2023-04-03T05:04:33;1.55;;;1.45;;
11986;SDS011;6053;51.382;6.768;2023-04-03T05:07:01;1.35;;;1.35;;
11986;SDS011;6053;51.382;6.768;2023-04-03T05:09:30;1.38;;;1.30;;
11986;SDS011;6053;51.382;6.768;2023-04-03T05:11:58;1.83;;;1.73;;
11986;SDS011;6053;51.382;6.768;2023-04-03T05:14:29;1.73;;;1.63;;
11986;SDS011;6053;51.382;6.768;2023-04-03T05:16:59;1.60;;;1.60;;
11986;SDS011;6053;51.382;6.768;2023-04-03T05:19:27;1.70;;;1.60;;
11986;SDS011;6053;51.382;6.768;2023-04-03T05:21:56;1.45;;;1.35;;
11986;SDS011;6053;51.382;6.768;2023-04-03T05:24:24;1.50;;;1.50;;
11986;SDS011;6053;51.382;6.768;2023-04-03T05:26:53;1.58;;;1.48;;
11986;SDS011;6053;51.382;6.768;2023-04-03T05:29:22;1.60;;;1.50;;
11986;SDS011;6053;51.382;6.768;2023-04-03T05:31:50;1.58;;;1.50;;
11986;SDS011;6053;51.382;6.768;2023-04-03T05:34:20;1.87;;;1.77;;
11986;SDS011;6053;51.382;6.768;2023-04-03T05:36:49;1.65;;;1.55;;
11986;SDS011;6053;51.382;6.768;2023-04-03T05:39:18;1.60;;;1.60;;
11986;SDS011;6053;51.382;6.768;2023-04-03T05:41:47;1.50;;;1.50;;
11986;SDS011;6053;51.382;6.768;2023-04-03T05:44:16;1.53;;;1.53;;
11986;SDS011;6053;51.382;6.768;2023-04-03T05:46:44;1.70;;;1.60;;
11986;SDS011;6053;51.382;6.768;2023-04-03T05:49:13;1.90;;;1.80;;
11986;SDS011;6053;51.382;6.768;2023-04-03T05:51:43;1.90;;;1.75;;
11986;SDS011;6053;51.382;6.768;2023-04-03T05:54:12;1.75;;;1.65;;
11986;SDS011;6053;51.382;6.768;2023-04-03T05:56:45;1.90;;;1.80;;
11986;SDS011;6053;51.382;6.768;2023-04-03T05:59:13;2.28;;;1.63;;
11986;SDS011;6053;51.382;6.768;2023-04-03T06:01:43;1.63;;;1.63;;
11986;SDS011;6053;51.382;6.768;2023-04-03T06:04:12;1.70;;;1.70;;
11986;SDS011;6053;51.382;6.768;2023-04-03T06:06:46;1.75;;;1.60;;
11986;SDS011;6053;51.382;6.768;2023-04-03T06:09:18;1.40;;;1.40;;
11986;SDS011;6053;51.382;6.768;2023-04-03T06:11:47;2.10;;;1.90;;
11986;SDS011;6053;51.382;6.768;2023-04-03T06:14:16;1.95;;;1.85;;
11986;SDS011;6053;51.382;6.768;2023-04-03T06:16:45;2.88;;;1.90;;
11986;SDS011;6053;51.382;6.768;2023-04-03T06:19:14;2.30;;;1.80;;
11986;SDS011;6053;51.382;6.768;2023-04-03T06:21:43;1.95;;;1.73;;
11986;SDS011;6053;51.382;6.768;2023-04-03T06:24:14;1.85;;;1.75;;
11986;SDS011;6053;51.382;6.768;2023-04-03T06:26:44;2.42;;;1.70;;
11986;SDS011;6053;51.382;6.768;2023-04-03T06:29:13;1.70;;;1.60;;
11986;SDS011;6053;51.382;6.768;2023-04-03T06:31:41;1.93;;;1.73;;
11986;SDS011;6053;51.382;6.768;2023-04-03T06:34:10;2.42;;;1.90;;
11986;SDS011;6053;51.382;6.768;2023-04-03T06:36:40;1.83;;;1.73;;
11986;SDS011;6053;51.382;6.768;2023-04-03T06:39:09;3.90;;;2.30;;
11986;SDS011;6053;51.382;6.768;2023-04-03T06:41:44;1.40;;;1.40;;
11986;SDS011;6053;51.382;6.768;2023-04-03T06:44:12;2.30;;;2.05;;
11986;SDS011;6053;51.382;6.768;2023-04-03T06:46:42;1.95;;;1.80;;
11986;SDS011;6053;51.382;6.768;2023-04-03T06:49:12;2.55;;;1.90;;
11986;SDS011;6053;51.382;6.768;2023-04-03T06:51:41;2.28;;;2.08;;
11986;SDS011;6053;51.382;6.768;2023-04-03T06:54:10;2.65;;;2.03;;
11986;SDS011;6053;51.382;6.768;2023-04-03T06:56:40;3.63;;;2.00;;
11986;SDS011;6053;51.382;6.768;2023-04-03T06:59:09;1.80;;;1.70;;
11986;SDS011;6053;51.382;6.768;2023-04-03T07:01:39;2.85;;;2.03;;
11986;SDS011;6053;51.382;6.768;2023-04-03T07:04:08;2.47;;;2.20;;
11986;SDS011;6053;51.382;6.768;2023-04-03T07:06:37;1.80;;;1.70;;
11986;SDS011;6053;51.382;6.768;2023-04-03T07:09:05;4.93;;;1.97;;
11986;SDS011;6053;51.382;6.768;2023-04-03T07:11:34;1.65;;;1.50;;
11986;SDS011;6053;51.382;6.768;2023-04-03T07:14:04;2.00;;;1.83;;
11986;SDS011;6053;51.382;6.768;2023-04-03T07:16:34;1.80;;;1.70;;
11986;SDS011;6053;51.382;6.768;2023-04-03T07:19:06;1.65;;;1.60;;
11986;SDS011;6053;51.382;6.768;2023-04-03T07:21:35;2.53;;;1.75;;
11986;SDS011;6053;51.382;6.768;2023-04-03T07:24:04;2.05;;;1.80;;
11986;SDS011;6053;51.382;6.768;2023-04-03T07:26:38;2.60;;;1.73;;
11986;SDS011;6053;51.382;6.768;2023-04-03T07:29:08;4.50;;;2.58;;
11986;SDS011;6053;51.382;6.768;2023-04-03T07:31:38;2.17;;;1.75;;
11986;SDS011;6053;51.382;6.768;2023-04-03T07:34:07;1.65;;;1.30;;
11986;SDS011;6053;51.382;6.768;2023-04-03T07:36:36;2.58;;;1.58;;
11986;SDS011;6053;51.382;6.768;2023-04-03T07:39:05;3.20;;;1.70;;
11986;SDS011;6053;51.382;6.768;2023-04-03T07:41:34;1.70;;;1.60;;
11986;SDS011;6053;51.382;6.768;2023-04-03T07:44:03;2.00;;;1.80;;
11986;SDS011;6053;51.382;6.768;2023-04-03T07:46:33;1.75;;;1.65;;
11986;SDS011;6053;51.382;6.768;2023-04-03T07:49:01;2.25;;;1.90;;
11986;SDS011;6053;51.382;6.768;2023-04-03T07:51:30;2.22;;;1.67;;
11986;SDS011;6053;51.382;6.768;2023-04-03T07:53:59;1.80;;;1.52;;
11986;SDS011;6053;51.382;6.768;2023-04-03T07:56:28;1.83;;;1.50;;
11986;SDS011;6053;51.382;6.768;2023-04-03T07:58:56;2.55;;;1.70;;
11986;SDS011;6053;51.382;6.768;2023-04-03T08:01:25;1.90;;;1.80;;
11986;SDS011;6053;51.382;6.768;2023-04-03T08:03:55;1.50;;;1.40;;
11986;SDS011;6053;51.382;6.768;2023-04-03T08:06:24;1.70;;;1.53;;
11986;SDS011;6053;51.382;6.768;2023-04-03T08:09:11;1.70;;;1.60;;
11986;SDS011;6053;51.382;6.768;2023-04-03T08:11:40;3.00;;;1.43;;
11986;SDS011;6053;51.382;6.768;2023-04-03T08:14:09;2.37;;;1.60;;
11986;SDS011;6053;51.382;6.768;2023-04-03T08:16:42;1.80;;;1.70;;
11986;SDS011;6053;51.382;6.768;2023-04-03T08:19:13;2.08;;;1.60;;
11986;SDS011;6053;51.382;6.768;2023-04-03T08:21:52;1.73;;;1.63;;
11986;SDS011;6053;51.382;6.768;2023-04-03T08:24:21;1.80;;;1.70;;
11986;SDS011;6053;51.382;6.768;2023-04-03T08:26:50;1.85;;;1.70;;
11986;SDS011;6053;51.382;6.768;2023-04-03T08:29:18;3.90;;;1.90;;
11986;SDS011;6053;51.382;6.768;2023-04-03T08:31:48;2.00;;;1.73;;
11986;SDS011;6053;51.382;6.768;2023-04-03T08:34:18;1.88;;;1.40;;
11986;SDS011;6053;51.382;6.768;2023-04-03T08:36:47;1.40;;;1.30;;
11986;SDS011;6053;51.382;6.768;2023-04-03T08:39:16;2.03;;;1.55;;
11986;SDS011;6053;51.382;6.768;2023-04-03T08:41:45;2.42;;;1.60;;
11986;SDS011;6053;51.382;6.768;2023-04-03T08:44:21;1.80;;;1.55;;
11986;SDS011;6053;51.382;6.768;2023-04-03T08:49:44;2.00;;;1.55;;
11986;SDS011;6053;51.382;6.768;2023-04-03T08:52:18;3.58;;;1.33;;
11986;SDS011;6053;51.382;6.768;2023-04-03T08:54:51;1.70;;;1.60;;
11986;SDS011;6053;51.382;6.768;2023-04-03T08:57:25;1.63;;;1.50;;
11986;SDS011;6053;51.382;6.768;2023-04-03T08:59:57;3.78;;;1.52;;
11986;SDS011;6053;51.382;6.768;2023-04-03T09:02:31;1.95;;;1.60;;
11986;SDS011;6053;51.382;6.768;2023-04-03T09:05:08;1.63;;;1.52;;
11986;SDS011;6053;51.382;6.768;2023-04-03T09:07:42;1.90;;;1.67;;
11986;SDS011;6053;51.382;6.768;2023-04-03T09:10:15;1.50;;;1.40;;
11986;SDS011;6053;51.382;6.768;2023-04-03T09:12:49;2.17;;;1.50;;
11986;SDS011;6053;51.382;6.768;2023-04-03T09:15:27;1.90;;;1.30;;
11986;SDS011;6053;51.382;6.768;2023-04-03T09:18:05;2.10;;;1.38;;
11986;SDS011;6053;51.382;6.768;2023-04-03T09:20:43;1.50;;;1.20;;
11986;SDS011;6053;51.382;6.768;2023-04-03T09:23:19;1.25;;;1.17;;
11986;SDS011;6053;51.382;6.768;2023-04-03T09:25:52;1.50;;;1.40;;
11986;SDS011;6053;51.382;6.768;2023-04-03T09:28:25;2.07;;;1.40;;
11986;SDS011;6053;51.382;6.768;2023-04-03T09:31:00;1.17;;;1.17;;
11986;SDS011;6053;51.382;6.768;2023-04-03T09:33:41;1.30;;;1.15;;
11986;SDS011;6053;51.382;6.768;2023-04-03T09:36:11;1.83;;;1.30;;
11986;SDS011;6053;51.382;6.768;2023-04-03T09:38:40;0.90;;;0.90;;
11986;SDS011;6053;51.382;6.768;2023-04-03T09:41:13;1.40;;;1.20;;
11986;SDS011;6053;51.382;6.768;2023-04-03T09:43:51;1.80;;;1.17;;
11986;SDS011;6053;51.382;6.768;2023-04-03T09:46:25;1.17;;;1.10;;
11986;SDS011;6053;51.382;6.768;2023-04-03T09:48:57;1.45;;;1.13;;
11986;SDS011;6053;51.382;6.768;2023-04-03T09:51:35;1.13;;;1.13;;
11986;SDS011;6053;51.382;6.768;2023-04-03T09:56:52;1.00;;;1.00;;
11986;SDS011;6053;51.382;6.768;2023-04-03T09:59:22;2.42;;;1.10;;
11986;SDS011;6053;51.382;6.768;2023-04-03T10:01:58;1.05;;;1.05;;
11986;SDS011;6053;51.382;6.768;2023-04-03T10:04:36;1.55;;;1.13;;
11986;SDS011;6053;51.382;6.768;2023-04-03T10:09:56;1.00;;;1.00;;
11986;SDS011;6053;51.382;6.768;2023-04-03T10:12:25;1.35;;;1.10;;
11986;SDS011;6053;51.382;6.768;2023-04-03T10:14:54;0.90;;;0.90;;
11986;SDS011;6053;51.382;6.768;2023-04-03T10:17:26;1.20;;;1.20;;
11986;SDS011;6053;51.382;6.768;2023-04-03T10:20:12;0.95;;;0.95;;
11986;SDS011;6053;51.382;6.768;2023-04-03T10:22:55;1.10;;;1.00;;
11986;SDS011;6053;51.382;6.768;2023-04-03T10:25:31;1.15;;;1.15;;
11986;SDS011;6053;51.382;6.768;2023-04-03T10:28:08;1.40;;;1.27;;
11986;SDS011;6053;51.382;6.768;2023-04-03T10:30:47;1.67;;;1.20;;
11986;SDS011;6053;51.382;6.768;2023-04-03T10:33:28;1.10;;;1.10;;
11986;SDS011;6053;51.382;6.768;2023-04-03T10:36:10;1.10;;;1.00;;
11986;SDS011;6053;51.382;6.768;2023-04-03T10:38:50;1.23;;;1.02;;
11986;SDS011;6053;51.382;6.768;2023-04-03T10:41:27;1.10;;;1.00;;
11986;SDS011;6053;51.382;6.768;2023-04-03T10:44:09;1.20;;;1.10;;
11986;SDS011;6053;51.382;6.768;2023-04-03T10:46:49;1.35;;;1.25;;
11986;SDS011;6053;51.382;6.768;2023-04-03T10:49:25;2.13;;;1.20;;
11986;SDS011;6053;51.382;6.768;2023-04-03T10:52:11;1.05;;;1.05;;
11986;SDS011;6053;51.382;6.768;2023-04-03T10:54:52;1.90;;;0.98;;
11986;SDS011;6053;51.382;6.768;2023-04-03T10:57:30;1.27;;;1.15;;
11986;SDS011;6053;51.382;6.768;2023-04-03T10:59:59;0.90;;;0.90;;
11986;SDS011;6053;51.382;6.768;2023-04-03T11:02:36;1.05;;;1.00;;
11986;SDS011;6053;51.382;6.768;2023-04-03T11:05:13;1.30;;;1.20;;
11986;SDS011;6053;51.382;6.768;2023-04-03T11:07:47;0.90;;;0.90;;
11986;SDS011;6053;51.382;6.768;2023-04-03T11:10:21;1.67;;;1.20;;
11986;SDS011;6053;51.382;6.768;2023-04-03T11:12:58;1.33;;;1.23;;
11986;SDS011;6053;51.382;6.768;2023-04-03T11:15:35;1.50;;;1.33;;
11986;SDS011;6053;51.382;6.768;2023-04-03T11:18:06;1.10;;;1.10;;
11986;SDS011;6053;51.382;6.768;2023-04-03T11:20:38;1.07;;;1.00;;
11986;SDS011;6053;51.382;6.768;2023-04-03T11:23:17;1.27;;;1.27;;
11986;SDS011;6053;51.382;6.768;2023-04-03T11:26:04;2.10;;;1.20;;
11986;SDS011;6053;51.382;6.768;2023-04-03T11:28:37;1.05;;;1.05;;
11986;SDS011;6053;51.382;6.768;2023-04-03T11:31:10;1.50;;;1.30;;
11986;SDS011;6053;51.382;6.768;2023-04-03T11:33:51;1.30;;;1.20;;
11986;SDS011;6053;51.382;6.768;2023-04-03T11:36:31;3.40;;;1.58;;
11986;SDS011;6053;51.382;6.768;2023-04-03T11:39:08;1.83;;;1.08;;
11986;SDS011;6053;51.382;6.768;2023-04-03T11:41:46;2.05;;;1.10;;
11986;SDS011;6053;51.382;6.768;2023-04-03T11:44:29;0.90;;;0.90;;
11986;SDS011;6053;51.382;6.768;2023-04-03T11:47:03;1.15;;;1.05;;
11986;SDS011;6053;51.382;6.768;2023-04-03T11:49:51;1.52;;;1.20;;
11986;SDS011;6053;51.382;6.768;2023-04-03T11:55:46;2.15;;;1.33;;
11986;SDS011;6053;51.382;6.768;2023-04-03T11:58:30;1.30;;;1.20;;
11986;SDS011;6053;51.382;6.768;2023-04-03T12:01:09;1.88;;;1.20;;
11986;SDS011;6053;51.382;6.768;2023-04-03T12:12:57;1.20;;;1.05;;
11986;SDS011;6053;51.382;6.768;2023-04-03T12:24:36;2.50;;;1.30;;
11986;SDS011;6053;51.382;6.768;2023-04-03T12:27:12;1.52;;;1.25;;
11986;SDS011;6053;51.382;6.768;2023-04-03T12:29:51;1.17;;;1.10;;
11986;SDS011;6053;51.382;6.768;2023-04-03T12:32:48;0.90;;;0.90;;
11986;SDS011;6053;51.382;6.768;2023-04-03T12:35:39;1.20;;;1.10;;
11986;SDS011;6053;51.382;6.768;2023-04-03T12:38:30;1.55;;;1.10;;
11986;SDS011;6053;51.382;6.768;2023-04-03T12:41:30;1.27;;;1.08;;
11986;SDS011;6053;51.382;6.768;2023-04-03T12:44:23;1.58;;;1.17;;
11986;SDS011;6053;51.382;6.768;2023-04-03T12:47:16;1.20;;;1.10;;
11986;SDS011;6053;51.382;6.768;2023-04-03T12:49:52;1.33;;;1.00;;
11986;SDS011;6053;51.382;6.768;2023-04-03T12:52:27;1.30;;;1.25;;
11986;SDS011;6053;51.382;6.768;2023-04-03T12:55:00;1.60;;;1.00;;
11986;SDS011;6053;51.382;6.768;2023-04-03T12:57:31;1.08;;;1.00;;
11986;SDS011;6053;51.382;6.768;2023-04-03T13:00:00;1.13;;;1.10;;
11986;SDS011;6053;51.382;6.768;2023-04-03T13:02:45;1.30;;;1.10;;
11986;SDS011;6053;51.382;6.768;2023-04-03T13:05:17;1.20;;;1.10;;
11986;SDS011;6053;51.382;6.768;2023-04-03T13:07:48;0.95;;;0.90;;
11986;SDS011;6053;51.382;6.768;2023-04-03T13:10:20;1.08;;;1.00;;
11986;SDS011;6053;51.382;6.768;2023-04-03T13:12:49;1.45;;;0.93;;
11986;SDS011;6053;51.382;6.768;2023-04-03T13:15:19;1.15;;;1.00;;
11986;SDS011;6053;51.382;6.768;2023-04-03T13:17:51;1.23;;;1.10;;
11986;SDS011;6053;51.382;6.768;2023-04-03T13:20:24;1.63;;;1.48;;
11986;SDS011;6053;51.382;6.768;2023-04-03T13:22:55;1.10;;;1.10;;
11986;SDS011;6053;51.382;6.768;2023-04-03T13:25:27;1.53;;;1.10;;
11986;SDS011;6053;51.382;6.768;2023-04-03T13:27:59;3.35;;;1.20;;
11986;SDS011;6053;51.382;6.768;2023-04-03T13:30:40;1.50;;;1.20;;
11986;SDS011;6053;51.382;6.768;2023-04-03T13:33:22;2.03;;;1.50;;
11986;SDS011;6053;51.382;6.768;2023-04-03T13:35:58;2.22;;;1.15;;
11986;SDS011;6053;51.382;6.768;2023-04-03T13:38:32;1.50;;;1.00;;
11986;SDS011;6053;51.382;6.768;2023-04-03T13:41:04;1.15;;;1.10;;
11986;SDS011;6053;51.382;6.768;2023-04-03T13:43:50;1.23;;;1.15;;
11986;SDS011;6053;51.382;6.768;2023-04-03T13:46:28;1.20;;;1.10;;
11986;SDS011;6053;51.382;6.768;2023-04-03T13:48:57;1.17;;;1.00;;
11986;SDS011;6053;51.382;6.768;2023-04-03T13:51:45;1.00;;;1.00;;
11986;SDS011;6053;51.382;6.768;2023-04-03T13:54:30;1.20;;;1.10;;
11986;SDS011;6053;51.382;6.768;2023-04-03T13:57:02;1.50;;;1.40;;
11986;SDS011;6053;51.382;6.768;2023-04-03T13:59:39;1.40;;;1.00;;
11986;SDS011;6053;51.382;6.768;2023-04-03T14:02:12;1.08;;;1.00;;
11986;SDS011;6053;51.382;6.768;2023-04-03T14:04:46;1.13;;;0.98;;
11986;SDS011;6053;51.382;6.768;2023-04-03T14:07:18;1.90;;;1.00;;
11986;SDS011;6053;51.382;6.768;2023-04-03T14:09:47;1.77;;;1.05;;
11986;SDS011;6053;51.382;6.768;2023-04-03T14:12:17;1.10;;;1.10;;
11986;SDS011;6053;51.382;6.768;2023-04-03T14:14:57;1.00;;;1.00;;
11986;SDS011;6053;51.382;6.768;2023-04-03T14:17:27;1.47;;;1.10;;
11986;SDS011;6053;51.382;6.768;2023-04-03T14:19:57;0.90;;;0.90;;
11986;SDS011;6053;51.382;6.768;2023-04-03T14:22:29;0.90;;;0.90;;
11986;SDS011;6053;51.382;6.768;2023-04-03T14:24:59;1.50;;;1.33;;
11986;SDS011;6053;51.382;6.768;2023-04-03T14:27:30;0.93;;;0.93;;
11986;SDS011;6053;51.382;6.768;2023-04-03T14:30:04;1.40;;;1.00;;
11986;SDS011;6053;51.382;6.768;2023-04-03T14:32:35;1.10;;;0.97;;
11986;SDS011;6053;51.382;6.768;2023-04-03T14:35:04;1.30;;;1.20;;
11986;SDS011;6053;51.382;6.768;2023-04-03T14:37:34;1.70;;;0.90;;
11986;SDS011;6053;51.382;6.768;2023-04-03T14:40:03;0.88;;;0.85;;
11986;SDS011;6053;51.382;6.768;2023-04-03T14:42:34;1.52;;;0.98;;
11986;SDS011;6053;51.382;6.768;2023-04-03T14:45:05;1.20;;;1.10;;
11986;SDS011;6053;51.382;6.768;2023-04-03T14:47:37;0.85;;;0.85;;
11986;SDS011;6053;51.382;6.768;2023-04-03T14:50:11;1.70;;;1.08;;
11986;SDS011;6053;51.382;6.768;2023-04-03T14:52:44;1.17;;;0.82;;
11986;SDS011;6053;51.382;6.768;2023-04-03T14:55:14;1.88;;;1.00;;
11986;SDS011;6053;51.382;6.768;2023-04-03T14:57:44;0.90;;;0.90;;
11986;SDS011;6053;51.382;6.768;2023-04-03T15:00:14;1.10;;;1.00;;
11986;SDS011;6053;51.382;6.768;2023-04-03T15:02:45;1.08;;;1.00;;
11986;SDS011;6053;51.382;6.768;2023-04-03T15:05:15;1.02;;;0.93;;
11986;SDS011;6053;51.382;6.768;2023-04-03T15:07:48;1.15;;;1.00;;
11986;SDS011;6053;51.382;6.768;2023-04-03T15:10:21;1.15;;;1.15;;
11986;SDS011;6053;51.382;6.768;2023-04-03T15:12:51;2.35;;;1.08;;
11986;SDS011;6053;51.382;6.768;2023-04-03T15:15:21;2.00;;;1.00;;
11986;SDS011;6053;51.382;6.768;2023-04-03T15:17:51;1.15;;;1.05;;
11986;SDS011;6053;51.382;6.768;2023-04-03T15:20:21;1.10;;;1.00;;
11986;SDS011;6053;51.382;6.768;2023-04-03T15:22:54;0.90;;;0.90;;
11986;SDS011;6053;51.382;6.768;2023-04-03T15:25:23;1.07;;;0.87;;
11986;SDS011;6053;51.382;6.768;2023-04-03T15:27:53;1.40;;;1.00;;
11986;SDS011;6053;51.382;6.768;2023-04-03T15:30:22;1.17;;;1.08;;
11986;SDS011;6053;51.382;6.768;2023-04-03T15:32:51;1.00;;;0.90;;
11986;SDS011;6053;51.382;6.768;2023-04-03T15:35:20;1.02;;;0.98;;
11986;SDS011;6053;51.382;6.768;2023-04-03T15:37:49;1.13;;;0.95;;
11986;SDS011;6053;51.382;6.768;2023-04-03T15:40:19;1.27;;;1.17;;
11986;SDS011;6053;51.382;6.768;2023-04-03T15:42:48;1.45;;;1.00;;
11986;SDS011;6053;51.382;6.768;2023-04-03T15:45:19;1.08;;;1.00;;
11986;SDS011;6053;51.382;6.768;2023-04-03T15:47:48;1.17;;;1.00;;
11986;SDS011;6053;51.382;6.768;2023-04-03T15:50:18;0.93;;;0.90;;
11986;SDS011;6053;51.382;6.768;2023-04-03T15:52:49;1.03;;;0.93;;
11986;SDS011;6053;51.382;6.768;2023-04-03T15:55:22;1.80;;;1.20;;
11986;SDS011;6053;51.382;6.768;2023-04-03T15:57:51;1.40;;;1.17;;
11986;SDS011;6053;51.382;6.768;2023-04-03T16:00:21;1.50;;;1.10;;